createdAt,value
2022-11-07T00:01:47.236Z,64.40
2022-11-07T00:04:15.224Z,64.30
2022-11-07T00:06:42.370Z,64.50
2022-11-07T00:09:09.765Z,64.60
2022-11-07T00:11:37.058Z,64.30
2022-11-07T00:14:05.352Z,64.40
2022-11-07T00:16:32.986Z,64.40
2022-11-07T00:19:00.320Z,64.30
2022-11-07T00:21:27.986Z,64.30
2022-11-07T00:23:55.085Z,64.30
2022-11-07T00:26:22.498Z,64.30
2022-11-07T00:28:50.028Z,64.30
2022-11-07T00:31:18.013Z,64.30
2022-11-07T00:33:45.968Z,64.30
2022-11-07T00:36:23.517Z,64.30
2022-11-07T00:38:50.848Z,64.20
2022-11-07T00:41:18.435Z,64.30
2022-11-07T00:43:46.006Z,64.20
2022-11-07T00:46:15.910Z,64.30
2022-11-07T00:48:43.457Z,64.20
2022-11-07T00:51:14.391Z,64.20
2022-11-07T00:53:41.826Z,64.20
2022-11-07T00:56:12.769Z,64.20
2022-11-07T00:58:43.030Z,64.20
2022-11-07T01:01:20.044Z,64.20
2022-11-07T01:04:06.431Z,64.10
2022-11-07T01:06:37.769Z,64.20
2022-11-07T01:09:08.556Z,64.20
2022-11-07T01:11:38.134Z,64.10
2022-11-07T01:14:07.999Z,64.20
2022-11-07T01:16:35.487Z,64.10
2022-11-07T01:19:03.667Z,64.10
2022-11-07T01:21:31.098Z,64.10
2022-11-07T01:23:58.300Z,64.10
2022-11-07T01:26:25.498Z,64.10
2022-11-07T01:28:52.650Z,64.00
2022-11-07T01:31:19.855Z,64.00
2022-11-07T01:33:47.096Z,64.10
2022-11-07T01:36:17.501Z,64.00
2022-11-07T01:38:50.442Z,64.00
2022-11-07T01:41:22.972Z,64.00
2022-11-07T01:44:08.423Z,64.90
2022-11-07T01:46:39.774Z,63.90
2022-11-07T01:49:17.140Z,63.90
2022-11-07T01:52:04.246Z,63.90
2022-11-07T01:54:53.074Z,63.90
2022-11-07T01:57:27.340Z,63.80
2022-11-07T01:59:57.541Z,63.90
2022-11-07T02:02:27.447Z,63.90
2022-11-07T02:04:58.126Z,63.90
2022-11-07T02:07:25.854Z,63.90
2022-11-07T02:09:54.382Z,63.90
2022-11-07T02:12:24.890Z,63.90
2022-11-07T02:14:52.026Z,63.90
2022-11-07T02:17:19.870Z,63.90
2022-11-07T02:19:56.612Z,63.90
2022-11-07T02:22:54.364Z,63.80
2022-11-07T02:25:33.437Z,63.90
2022-11-07T04:31:12.617Z,64.00
2022-11-07T04:44:20.586Z,64.10
2022-11-07T04:53:05.808Z,64.10
2022-11-07T04:55:33.231Z,64.10
2022-11-07T04:58:00.419Z,64.10
2022-11-07T05:00:27.831Z,64.10
2022-11-07T05:02:58.303Z,64.10
2022-11-07T05:05:25.711Z,64.10
2022-11-07T05:07:52.854Z,64.10
2022-11-07T05:10:27.507Z,64.10
2022-11-07T05:12:56.678Z,64.10
2022-11-07T05:15:24.371Z,64.10
2022-11-07T05:17:51.478Z,64.20
2022-11-07T05:20:32.241Z,64.20
2022-11-07T05:23:16.226Z,64.90
2022-11-07T05:25:52.926Z,64.10
2022-11-07T05:28:35.205Z,63.90
2022-11-07T05:31:06.109Z,63.80
2022-11-07T05:33:35.613Z,63.80
2022-11-07T05:36:21.357Z,63.80
2022-11-07T05:38:52.125Z,63.60
2022-11-07T05:41:21.801Z,63.80
2022-11-07T05:43:49.119Z,63.70
2022-11-07T05:46:16.708Z,63.60
2022-11-07T05:48:43.902Z,63.70
2022-11-07T05:51:11.054Z,63.80
2022-11-07T05:53:38.616Z,63.80
2022-11-07T05:56:06.295Z,63.80
2022-11-07T05:58:33.568Z,63.60
2022-11-07T06:01:06.472Z,63.70
2022-11-07T06:03:34.169Z,63.60
2022-11-07T06:06:01.261Z,63.60
2022-11-07T06:08:28.423Z,63.60
2022-11-07T06:10:55.547Z,63.60
2022-11-07T06:13:22.852Z,63.60
2022-11-07T06:15:50.026Z,63.60
2022-11-07T06:18:20.457Z,63.50
2022-11-07T06:20:47.873Z,63.60
2022-11-07T06:23:15.970Z,63.50
2022-11-07T06:25:43.693Z,63.50
2022-11-07T06:28:12.809Z,63.60
2022-11-07T06:30:40.833Z,63.50
2022-11-07T06:33:13.231Z,63.50
2022-11-07T06:35:41.113Z,63.50
2022-11-07T06:38:11.299Z,63.50
2022-11-07T06:40:40.688Z,63.50
2022-11-07T06:43:19.175Z,63.50
2022-11-07T06:45:47.459Z,63.40
2022-11-07T06:48:14.562Z,63.50
2022-11-07T06:50:41.933Z,63.50
2022-11-07T06:53:12.956Z,63.50
2022-11-07T06:55:40.656Z,63.40
2022-11-07T06:58:08.087Z,63.50
2022-11-07T07:00:36.765Z,63.50
2022-11-07T07:03:04.154Z,63.50
2022-11-07T07:05:35.646Z,63.40
2022-11-07T07:08:05.147Z,63.40
2022-11-07T07:10:37.772Z,63.50
2022-11-07T07:13:05.054Z,63.40
2022-11-07T07:15:49.368Z,63.40
2022-11-07T07:18:17.867Z,63.40
2022-11-07T07:20:46.700Z,63.40
2022-11-07T07:23:14.026Z,63.50
2022-11-07T07:25:41.263Z,63.40
2022-11-07T07:28:08.510Z,63.30
2022-11-07T07:30:35.694Z,63.40
2022-11-07T07:33:03.001Z,63.40
2022-11-07T07:35:30.544Z,63.40
2022-11-07T07:38:22.003Z,63.50
2022-11-07T07:41:04.693Z,63.40
2022-11-07T07:43:41.216Z,63.40
2022-11-07T07:46:14.555Z,63.40
2022-11-07T07:48:46.570Z,63.50
2022-11-07T07:51:13.954Z,63.40
2022-11-07T07:53:41.434Z,63.40
2022-11-07T07:56:09.117Z,63.40
2022-11-07T07:58:36.694Z,63.40
2022-11-07T08:01:10.339Z,63.50
2022-11-07T08:03:59.716Z,63.40
2022-11-07T08:06:27.239Z,63.40
2022-11-07T08:08:54.518Z,63.40
2022-11-07T08:11:22.127Z,63.40
2022-11-07T08:13:49.515Z,63.40
2022-11-07T08:16:16.903Z,63.40
2022-11-07T08:18:44.109Z,63.40
2022-11-07T08:21:11.533Z,63.40
2022-11-07T08:23:39.007Z,63.40
2022-11-07T08:26:06.906Z,63.40
2022-11-07T08:28:36.274Z,63.40
2022-11-07T08:31:07.216Z,63.40
2022-11-07T08:33:35.338Z,63.40
2022-11-07T08:36:04.846Z,63.30
2022-11-07T08:38:34.718Z,63.30
2022-11-07T08:41:02.203Z,63.20
2022-11-07T08:43:29.872Z,63.30
2022-11-07T08:45:58.616Z,63.40
2022-11-07T08:48:26.537Z,63.30
2022-11-07T08:50:58.062Z,63.30
2022-11-07T08:53:27.977Z,63.40
2022-11-07T08:56:07.829Z,63.40
2022-11-07T08:58:37.067Z,63.30
2022-11-07T09:01:09.641Z,63.40
2022-11-07T09:03:52.937Z,63.30
2022-11-07T09:06:22.953Z,63.30
2022-11-07T09:08:50.126Z,63.20
2022-11-07T09:11:21.901Z,63.30
2022-11-07T09:13:49.132Z,63.30
2022-11-07T09:16:19.919Z,63.30
2022-11-07T09:19:01.736Z,63.20
2022-11-07T09:21:32.742Z,63.30
2022-11-07T09:24:00.315Z,63.30
2022-11-07T09:26:27.804Z,63.20
2022-11-07T09:29:00.803Z,63.30
2022-11-07T09:31:28.778Z,63.20
2022-11-07T09:33:56.151Z,63.20
2022-11-07T09:36:24.179Z,63.30
2022-11-07T09:38:51.704Z,63.20
2022-11-07T09:41:46.357Z,63.20
2022-11-07T09:44:57.463Z,63.20
2022-11-07T09:47:37.109Z,63.20
2022-11-07T09:50:29.867Z,63.20
2022-11-07T09:53:33.326Z,63.10
2022-11-07T09:56:04.706Z,63.10
2022-11-07T09:58:34.957Z,63.10
2022-11-07T10:01:09.670Z,63.10
2022-11-07T10:03:49.057Z,63.10
2022-11-07T10:06:32.625Z,63.10
2022-11-07T10:09:22.092Z,63.10
2022-11-07T10:12:00.144Z,63.10
2022-11-07T10:15:00.227Z,63.00
2022-11-07T10:17:47.839Z,63.00
2022-11-07T10:20:25.130Z,63.10
2022-11-07T10:23:56.041Z,64.00
2022-11-07T10:26:29.871Z,63.20
2022-11-07T10:29:17.288Z,63.30
2022-11-07T10:32:09.258Z,63.10
2022-11-07T10:35:24.810Z,63.00
2022-11-07T10:38:08.722Z,63.00
2022-11-07T10:40:42.080Z,63.10
2022-11-07T10:43:23.873Z,63.10
2022-11-07T10:45:52.407Z,63.00
2022-11-07T10:48:19.697Z,63.10
2022-11-07T10:50:57.424Z,63.10
2022-11-07T10:53:29.512Z,63.10
2022-11-07T10:55:58.892Z,63.10
2022-11-07T10:58:29.141Z,63.10
2022-11-07T11:01:08.372Z,63.10
2022-11-07T11:03:48.619Z,63.10
2022-11-07T11:06:19.027Z,63.10
2022-11-07T11:08:49.444Z,63.00
2022-11-07T11:11:32.284Z,63.10
2022-11-07T11:14:20.159Z,63.00
2022-11-07T11:16:57.144Z,63.00
2022-11-07T11:19:26.636Z,63.00
2022-11-07T11:21:58.117Z,63.00
2022-11-07T11:24:31.674Z,63.00
2022-11-07T11:27:07.666Z,63.00
2022-11-07T11:29:44.943Z,62.90
2022-11-07T11:32:27.994Z,63.00
2022-11-07T11:35:43.222Z,63.00
2022-11-07T11:38:33.335Z,62.90
2022-11-07T11:41:13.645Z,62.90
2022-11-07T11:44:04.450Z,63.00
2022-11-07T11:47:15.348Z,63.00
2022-11-07T11:49:59.130Z,62.90
2022-11-07T11:52:27.976Z,62.90
2022-11-07T11:55:01.923Z,63.00
2022-11-07T11:58:19.345Z,63.00
2022-11-07T12:01:13.275Z,62.90
2022-11-07T12:03:49.513Z,62.90
2022-11-07T12:06:46.268Z,62.90
2022-11-07T12:09:52.144Z,63.00
2022-11-07T12:12:40.217Z,63.00
2022-11-07T12:15:31.923Z,62.90
2022-11-07T12:18:23.905Z,62.90
2022-11-07T12:20:56.052Z,63.00
2022-11-07T12:23:51.788Z,63.00
2022-11-07T12:26:48.907Z,63.00
2022-11-07T12:29:28.567Z,63.00
2022-11-07T12:32:11.113Z,63.00
2022-11-07T12:35:10.200Z,63.00
2022-11-07T12:38:15.840Z,62.90
2022-11-07T12:41:28.632Z,63.00
2022-11-07T12:44:12.216Z,62.90
2022-11-07T12:51:40.452Z,63.00
2022-11-07T12:54:47.837Z,62.90
2022-11-07T12:57:37.758Z,63.00
2022-11-07T13:00:27.596Z,63.00
2022-11-07T13:03:50.096Z,63.90
2022-11-07T13:06:59.790Z,62.90
2022-11-07T13:10:29.724Z,63.00
2022-11-07T13:13:12.428Z,63.00
2022-11-07T13:16:08.970Z,63.00
2022-11-07T13:18:28.485Z,63.00
2022-11-07T13:21:20.759Z,63.00
2022-11-07T13:23:51.699Z,63.00
2022-11-07T13:29:38.466Z,63.00
2022-11-07T13:32:16.779Z,63.00
2022-11-07T13:34:59.225Z,63.00
2022-11-07T13:37:36.316Z,63.00
2022-11-07T13:40:32.025Z,63.00
2022-11-07T13:43:55.705Z,63.00
2022-11-07T13:46:31.682Z,63.00
2022-11-07T13:49:16.343Z,63.10
2022-11-07T13:52:01.117Z,63.00
2022-11-07T13:54:47.807Z,63.00
2022-11-07T13:57:33.162Z,63.00
2022-11-07T14:00:16.491Z,63.00
2022-11-07T14:03:09.454Z,63.00
2022-11-07T14:05:43.132Z,63.40
2022-11-07T14:08:25.899Z,63.00
2022-11-07T14:11:05.620Z,63.00
2022-11-07T14:13:41.591Z,63.00
2022-11-07T14:16:26.861Z,63.00
2022-11-07T14:19:04.050Z,63.10
2022-11-07T14:21:34.900Z,63.00
2022-11-07T14:24:03.360Z,63.00
2022-11-07T14:26:38.823Z,63.00
2022-11-07T14:29:12.487Z,63.00
2022-11-07T14:31:53.724Z,63.00
2022-11-07T14:34:23.001Z,63.00
2022-11-07T14:37:07.293Z,63.00
2022-11-07T14:39:57.463Z,63.00
2022-11-07T14:42:28.243Z,63.10
2022-11-07T14:44:59.044Z,63.00
2022-11-07T14:47:34.007Z,63.00
2022-11-07T14:50:09.981Z,63.00
2022-11-07T14:53:00.054Z,62.90
2022-11-07T14:55:36.249Z,63.00
2022-11-07T14:58:10.376Z,62.90
2022-11-07T15:00:39.336Z,63.00
2022-11-07T15:03:06.887Z,63.00
2022-11-07T15:05:45.319Z,63.00
2022-11-07T15:08:56.934Z,62.90
2022-11-07T15:11:52.299Z,63.00
2022-11-07T15:14:50.533Z,63.00
2022-11-07T15:17:25.331Z,62.90
2022-11-07T15:20:03.571Z,63.00
2022-11-07T15:22:38.577Z,62.90
2022-11-07T15:25:56.599Z,62.90
2022-11-07T15:28:33.819Z,62.90
2022-11-07T15:31:01.927Z,63.00
2022-11-07T15:33:33.478Z,62.90
2022-11-07T15:36:02.232Z,62.90
2022-11-07T15:38:30.129Z,62.90
2022-11-07T15:40:57.347Z,62.90
2022-11-07T15:43:24.756Z,62.90
2022-11-07T15:45:54.940Z,62.90
2022-11-07T15:48:28.862Z,63.70
2022-11-07T15:50:56.163Z,63.00
2022-11-07T15:53:26.502Z,62.90
2022-11-07T15:55:56.539Z,62.90
2022-11-07T15:58:26.932Z,62.90
2022-11-07T16:00:55.204Z,62.90
2022-11-07T16:03:25.458Z,62.90
2022-11-07T16:05:55.495Z,63.00
2022-11-07T16:08:24.516Z,63.00
2022-11-07T16:11:04.564Z,62.90
2022-11-07T16:13:32.335Z,62.90
2022-11-07T16:16:03.248Z,62.90
2022-11-07T16:18:43.373Z,62.90
2022-11-07T16:21:11.680Z,62.80
2022-11-07T16:23:43.189Z,62.90
2022-11-07T16:26:26.631Z,62.90
2022-11-07T16:28:53.997Z,62.90
2022-11-07T16:31:21.228Z,62.90
2022-11-07T16:33:48.560Z,62.90
2022-11-07T16:36:25.382Z,62.90
2022-11-07T16:38:53.021Z,62.80
2022-11-07T16:41:20.360Z,62.90
2022-11-07T16:43:47.812Z,62.90
2022-11-07T16:46:21.475Z,62.90
2022-11-07T16:49:04.127Z,62.90
2022-11-07T16:51:33.071Z,63.80
2022-11-07T16:54:00.242Z,62.80
2022-11-07T16:56:31.660Z,62.90
2022-11-07T16:59:00.034Z,62.90
2022-11-07T17:01:28.389Z,63.80
2022-11-07T17:03:55.694Z,62.80
2022-11-07T17:06:30.532Z,63.00
2022-11-07T17:09:06.115Z,62.90
2022-11-07T17:11:39.104Z,63.00
2022-11-07T17:14:06.168Z,62.90
2022-11-07T17:16:36.688Z,62.90
2022-11-07T17:19:05.887Z,63.00
2022-11-07T17:21:37.925Z,63.00
2022-11-07T17:24:06.051Z,62.90
2022-11-07T17:26:37.785Z,62.90
2022-11-07T17:29:08.187Z,62.80
2022-11-07T17:31:35.612Z,62.90
2022-11-07T17:34:03.051Z,62.90
2022-11-07T17:36:37.523Z,62.80
2022-11-07T17:39:11.376Z,62.80
2022-11-07T17:41:40.731Z,62.80
2022-11-07T17:44:08.261Z,62.80
2022-11-07T17:46:37.435Z,62.80
2022-11-07T17:49:07.192Z,62.80
2022-11-07T17:51:39.491Z,62.80
2022-11-07T17:54:07.043Z,62.80
2022-11-07T17:56:34.558Z,62.80
2022-11-07T17:59:14.429Z,62.80
2022-11-07T18:01:42.000Z,62.80
2022-11-07T18:04:12.478Z,62.80
2022-11-07T18:06:42.336Z,62.80
2022-11-07T18:09:15.802Z,62.80
2022-11-07T18:11:44.243Z,62.80
2022-11-07T18:14:14.076Z,62.80
2022-11-07T18:16:42.349Z,62.80
2022-11-07T18:19:10.818Z,62.80
2022-11-07T18:21:38.028Z,62.80
2022-11-07T18:24:05.507Z,62.80
2022-11-07T18:26:33.476Z,62.70
2022-11-07T18:29:05.196Z,62.80
2022-11-07T18:31:32.354Z,63.00
2022-11-07T18:34:03.455Z,62.80
2022-11-07T18:36:32.190Z,62.70
2022-11-07T18:39:05.611Z,62.80
2022-11-07T18:41:32.866Z,62.80
2022-11-07T18:44:04.464Z,62.70
2022-11-07T18:46:32.323Z,62.70
2022-11-07T18:49:00.288Z,62.80
2022-11-07T18:51:27.479Z,62.70
2022-11-07T18:53:55.627Z,63.60
2022-11-07T18:56:22.903Z,62.70
2022-11-07T18:58:49.980Z,62.70
2022-11-07T19:01:26.664Z,62.70
2022-11-07T19:03:56.482Z,62.70
2022-11-07T19:06:26.375Z,62.70
2022-11-07T19:08:53.993Z,62.70
2022-11-07T19:11:26.531Z,62.70
2022-11-07T19:13:53.736Z,62.70
2022-11-07T19:16:22.122Z,62.70
2022-11-07T19:18:50.268Z,62.70
2022-11-07T19:21:23.571Z,62.70
2022-11-07T19:23:52.053Z,62.70
2022-11-07T19:26:19.824Z,62.70
2022-11-07T19:28:47.728Z,62.70
2022-11-07T19:31:15.445Z,62.70
2022-11-07T19:33:43.637Z,63.60
2022-11-07T19:36:17.194Z,62.70
2022-11-07T19:38:45.250Z,62.70
2022-11-07T19:41:13.768Z,62.70
2022-11-07T19:43:42.597Z,62.70
2022-11-07T19:46:19.607Z,62.70
2022-11-07T19:48:47.749Z,62.70
2022-11-07T19:51:21.506Z,62.60
2022-11-07T19:53:58.739Z,62.70
2022-11-07T19:56:29.153Z,62.60
2022-11-07T19:58:56.573Z,62.70
2022-11-07T20:01:28.175Z,62.70
2022-11-07T20:03:56.395Z,62.60
2022-11-07T20:06:37.132Z,62.70
2022-11-07T20:09:15.037Z,62.60
2022-11-07T20:11:43.317Z,62.60
2022-11-07T20:14:12.381Z,62.70
2022-11-07T20:16:39.789Z,62.60
2022-11-07T20:19:07.314Z,62.60
2022-11-07T20:21:34.475Z,62.60
2022-11-07T20:24:01.671Z,62.50
2022-11-07T20:26:30.614Z,63.50
2022-11-07T20:28:58.872Z,62.70
2022-11-07T20:31:30.447Z,62.60
2022-11-07T20:34:03.410Z,62.60
2022-11-07T20:36:33.753Z,62.60
2022-11-07T20:39:01.977Z,62.60
2022-11-07T20:41:29.754Z,62.60
2022-11-07T20:44:03.939Z,62.60
2022-11-07T20:46:34.648Z,62.60
2022-11-07T20:49:10.888Z,62.60
2022-11-07T20:51:38.053Z,62.60
2022-11-07T20:54:05.868Z,62.50
2022-11-07T20:56:33.919Z,62.60
2022-11-07T20:59:01.319Z,62.60
2022-11-07T21:01:38.228Z,62.60
2022-11-07T21:04:17.037Z,62.60
2022-11-07T21:06:44.534Z,62.60
2022-11-07T21:09:12.364Z,62.60
2022-11-07T21:11:41.598Z,62.60
2022-11-07T21:14:10.309Z,62.60
2022-11-07T21:16:37.502Z,62.60
2022-11-07T21:19:07.985Z,62.60
2022-11-07T21:21:35.234Z,62.50
2022-11-07T21:24:03.323Z,62.60
2022-11-07T21:26:41.569Z,62.60
2022-11-07T21:29:09.591Z,62.60
2022-11-07T21:31:39.588Z,62.50
2022-11-07T21:34:09.216Z,62.60
2022-11-07T21:36:36.621Z,62.60
2022-11-07T21:39:04.797Z,62.60
2022-11-07T21:41:32.043Z,62.50
2022-11-07T21:43:59.865Z,62.50
2022-11-07T21:46:31.579Z,62.50
2022-11-07T21:48:59.449Z,62.50
2022-11-07T21:51:30.200Z,62.50
2022-11-07T21:53:59.351Z,62.60
2022-11-07T21:56:35.409Z,62.50
2022-11-07T21:59:07.670Z,62.50
2022-11-07T22:01:36.178Z,62.50
2022-11-07T22:04:11.119Z,62.50
2022-11-07T22:06:43.610Z,62.50
2022-11-07T22:09:16.130Z,62.50
2022-11-07T22:11:44.076Z,62.50
2022-11-07T22:14:15.885Z,62.50
2022-11-07T22:16:43.268Z,62.50
2022-11-07T22:19:12.748Z,62.50
2022-11-07T22:21:40.958Z,62.50
2022-11-07T22:24:09.327Z,62.50
2022-11-07T22:26:36.786Z,62.50
2022-11-07T22:29:05.569Z,62.50
2022-11-07T22:31:32.828Z,62.50
2022-11-07T22:34:01.102Z,62.50
2022-11-07T22:36:29.891Z,62.50
2022-11-07T22:38:58.757Z,62.50
2022-11-07T22:41:29.021Z,62.50
2022-11-07T22:43:57.429Z,62.50
2022-11-07T22:46:30.183Z,63.40
2022-11-07T22:48:59.313Z,62.50
2022-11-07T22:51:34.362Z,62.50
2022-11-07T22:54:05.968Z,62.60
2022-11-07T22:56:35.376Z,63.30
2022-11-07T22:59:03.886Z,62.50
2022-11-07T23:01:35.571Z,62.50
2022-11-07T23:04:03.184Z,62.50
2022-11-07T23:06:30.918Z,62.50
2022-11-07T23:08:59.470Z,62.40
2022-11-07T23:11:48.559Z,62.40
2022-11-07T23:14:20.217Z,62.50
2022-11-07T23:16:51.147Z,62.40
2022-11-07T23:19:21.807Z,62.40
2022-11-07T23:21:50.867Z,62.40
2022-11-07T23:24:18.127Z,62.30
2022-11-07T23:26:45.378Z,62.40
2022-11-07T23:29:23.077Z,62.40
2022-11-07T23:31:51.817Z,62.50
2022-11-07T23:34:20.183Z,62.50
2022-11-07T23:36:51.337Z,62.50
2022-11-07T23:39:21.799Z,62.50
2022-11-07T23:41:49.697Z,62.50
2022-11-07T23:44:16.757Z,62.50
2022-11-07T23:47:03.257Z,62.50
2022-11-07T23:49:49.626Z,62.40
2022-11-07T23:52:17.920Z,62.40
2022-11-07T23:55:03.852Z,62.50
2022-11-07T23:57:55.411Z,62.50
